Time;durP1;ratioP1;P1;durP2;ratioP2;P2;SDS_P1;SDS_P2;PMS_P1;PMS_P2;Temp;Humidity;BMP_temperature;BMP_pressure;BME280_temperature;BME280_humidity;BME280_pressure;Samples;Min_cycle;Max_cycle;Signal;HPM_P1;HPM_P2
2022/08/09 00:01:14;;;;;;;17.42;8.07;;;14.60;99.90;;;;;;5049751;28;20033;-79
2022/08/09 00:03:40;;;;;;;9.93;7.80;;;14.60;99.90;;;;;;5055208;28;20127;-78
2022/08/09 00:06:05;;;;;;;13.05;8.13;;;14.60;99.90;;;;;;5052899;28;20043;-76
2022/08/09 00:08:31;;;;;;;10.23;8.25;;;14.60;99.90;;;;;;5052091;28;20090;-77
2022/08/09 00:10:58;;;;;;;14.05;9.70;;;14.50;99.90;;;;;;5050876;28;20140;-77
2022/08/09 00:13:24;;;;;;;13.93;9.70;;;14.60;99.90;;;;;;5053647;28;20599;-76
2022/08/09 00:15:49;;;;;;;11.10;8.60;;;14.50;99.90;;;;;;5049209;28;20147;-77
2022/08/09 00:18:16;;;;;;;14.13;9.32;;;14.50;99.90;;;;;;5054119;28;20045;-78
2022/08/09 00:20:41;;;;;;;12.43;9.70;;;14.60;99.90;;;;;;5054665;28;20510;-76
2022/08/09 00:23:07;;;;;;;12.02;10.25;;;14.50;99.90;;;;;;5057087;28;20037;-77
2022/08/09 00:25:32;;;;;;;11.90;9.45;;;14.50;99.90;;;;;;5055821;28;20044;-78
2022/08/09 00:27:58;;;;;;;14.20;9.13;;;14.50;99.90;;;;;;5059998;28;20053;-76
2022/08/09 00:30:24;;;;;;;9.52;7.45;;;14.40;99.90;;;;;;5056054;28;20036;-77
2022/08/09 00:32:49;;;;;;;11.82;8.27;;;14.40;99.90;;;;;;5054513;28;20040;-77
2022/08/09 00:35:15;;;;;;;9.88;7.75;;;14.30;99.90;;;;;;5055664;28;20028;-79
2022/08/09 00:37:40;;;;;;;12.70;9.77;;;14.20;99.90;;;;;;5055081;28;20127;-76
2022/08/09 00:40:06;;;;;;;16.17;10.32;;;14.20;99.90;;;;;;5055037;28;20048;-76
2022/08/09 00:42:32;;;;;;;12.85;9.48;;;14.20;99.90;;;;;;5055206;28;20376;-80
2022/08/09 00:44:57;;;;;;;10.57;9.52;;;14.30;99.90;;;;;;5050787;28;20043;-76
2022/08/09 00:47:23;;;;;;;10.52;8.55;;;14.20;99.90;;;;;;5055159;28;20124;-78
2022/08/09 00:49:49;;;;;;;11.73;7.88;;;14.20;99.90;;;;;;5053840;28;20110;-77
2022/08/09 00:52:14;;;;;;;7.90;6.10;;;14.20;99.90;;;;;;5056030;28;20103;-76
2022/08/09 00:54:40;;;;;;;8.90;7.85;;;14.20;99.90;;;;;;5053314;28;20388;-77
2022/08/09 00:57:06;;;;;;;8.30;7.32;;;14.10;99.90;;;;;;5054422;28;20037;-78
2022/08/09 00:59:31;;;;;;;8.68;7.80;;;14.10;99.90;;;;;;5053830;28;20091;-77
2022/08/09 01:02:00;;;;;;;9.52;6.45;;;14.00;99.90;;;;;;5052935;28;20072;-76
2022/08/09 01:04:59;;;;;;;9.40;7.18;;;13.90;99.90;;;;;;5051808;28;20044;-79
2022/08/09 01:07:49;;;;;;;8.68;6.68;;;13.90;99.90;;;;;;5050239;28;20052;-76
2022/08/09 01:10:32;;;;;;;7.63;6.45;;;13.90;99.90;;;;;;5054933;28;20135;-77
2022/08/09 01:13:18;;;;;;;5.45;4.95;;;13.80;99.90;;;;;;5055518;28;20462;-79
2022/08/09 01:15:45;;;;;;;6.30;4.55;;;13.70;99.90;;;;;;5054917;28;20047;-77
2022/08/09 01:18:17;;;;;;;7.93;6.25;;;13.70;99.90;;;;;;5059084;28;20044;-77
2022/08/09 01:20:45;;;;;;;6.82;5.70;;;13.60;99.90;;;;;;5055262;28;20040;-78
2022/08/09 01:23:48;;;;;;;5.63;5.10;;;13.60;99.90;;;;;;5054440;28;20386;-77
2022/08/09 01:26:35;;;;;;;6.38;4.38;;;13.50;99.90;;;;;;5053179;28;20101;-78
2022/08/09 01:29:03;;;;;;;5.50;4.70;;;13.40;99.90;;;;;;5053412;28;20458;-77
2022/08/09 01:31:33;;;;;;;4.18;3.78;;;13.40;99.90;;;;;;5054256;28;20921;-76
2022/08/09 01:34:02;;;;;;;9.32;6.30;;;13.40;99.90;;;;;;5046545;28;20156;-76
2022/08/09 01:36:29;;;;;;;7.85;6.10;;;13.30;99.90;;;;;;5063653;28;20044;-76
2022/08/09 01:38:55;;;;;;;6.18;5.68;;;13.10;99.90;;;;;;5054821;28;20594;-79
2022/08/09 01:41:24;;;;;;;5.45;4.20;;;13.00;99.90;;;;;;5051732;28;20153;-76
2022/08/09 01:44:02;;;;;;;4.13;3.75;;;12.80;99.90;;;;;;5034624;28;20044;-77
2022/08/09 01:46:36;;;;;;;4.80;3.45;;;12.70;99.90;;;;;;5056420;28;20033;-79
2022/08/09 01:49:10;;;;;;;4.38;3.63;;;12.50;99.90;;;;;;5056702;28;20044;-77
2022/08/09 01:51:37;;;;;;;4.68;3.45;;;12.40;99.90;;;;;;5055551;28;20044;-79
2022/08/09 01:54:05;;;;;;;4.60;3.67;;;12.20;99.90;;;;;;5052908;28;20507;-77
2022/08/09 01:56:34;;;;;;;7.60;5.10;;;12.20;99.90;;;;;;5053719;28;20059;-76
2022/08/09 01:59:04;;;;;;;7.03;5.03;;;12.20;99.90;;;;;;5050193;28;20063;-76
2022/08/09 02:01:31;;;;;;;8.50;4.22;;;12.20;99.90;;;;;;5049014;28;20060;-82
2022/08/09 02:03:58;;;;;;;10.82;5.03;;;12.10;99.90;;;;;;5049643;28;20041;-77
2022/08/09 02:09:12;;;;;;;9.40;8.00;;;12.20;99.90;;;;;;5054438;28;20084;-77
2022/08/09 02:11:38;;;;;;;10.68;8.75;;;12.30;99.90;;;;;;5054836;28;20554;-76
2022/08/09 02:14:05;;;;;;;11.32;8.55;;;12.50;99.90;;;;;;5048562;28;20070;-77
2022/08/09 02:16:34;;;;;;;9.88;8.60;;;12.70;99.90;;;;;;5053525;28;20752;-76
2022/08/09 02:19:00;;;;;;;11.27;7.82;;;12.80;99.90;;;;;;5047787;28;20076;-77
2022/08/09 02:21:30;;;;;;;12.82;8.32;;;12.90;99.90;;;;;;5053995;28;20051;-76
2022/08/09 02:23:58;;;;;;;7.93;6.13;;;12.80;99.90;;;;;;5057127;28;20123;-76
2022/08/09 02:26:28;;;;;;;9.85;7.05;;;12.80;99.90;;;;;;5052028;28;20572;-76
2022/08/09 02:28:58;;;;;;;7.22;6.18;;;12.80;99.90;;;;;;5053683;28;20513;-76
2022/08/09 02:31:29;;;;;;;6.55;5.30;;;12.80;99.90;;;;;;5049504;28;20415;-76
2022/08/09 02:34:03;;;;;;;7.13;6.28;;;12.80;99.90;;;;;;5047238;28;20049;-77
2022/08/09 02:36:37;;;;;;;8.05;6.75;;;12.80;99.90;;;;;;5055386;28;20067;-78
2022/08/09 02:39:11;;;;;;;7.97;6.32;;;12.80;99.90;;;;;;5054818;28;20055;-77
2022/08/09 02:41:44;;;;;;;12.05;7.05;;;12.80;99.90;;;;;;5052591;28;20041;-77
2022/08/09 02:44:21;;;;;;;20.83;7.05;;;12.90;99.90;;;;;;5050144;28;20095;-77
2022/08/09 02:46:50;;;;;;;10.77;5.97;;;12.90;99.90;;;;;;5051984;28;20135;-76
2022/08/09 02:49:18;;;;;;;12.55;6.28;;;12.90;99.90;;;;;;5048912;28;20037;-78
2022/08/09 02:51:48;;;;;;;14.57;5.97;;;12.90;99.90;;;;;;5052306;28;20042;-76
2022/08/09 02:54:15;;;;;;;10.63;5.70;;;12.90;99.90;;;;;;5050767;28;20036;-79
2022/08/09 02:56:45;;;;;;;28.92;6.00;;;12.90;99.90;;;;;;5054315;28;20046;-79
2022/08/09 02:59:13;;;;;;;17.33;4.95;;;12.90;99.90;;;;;;5048213;28;20080;-77
2022/08/09 03:01:40;;;;;;;17.17;5.43;;;12.90;99.90;;;;;;5051425;28;20056;-78
2022/08/09 03:04:07;;;;;;;11.15;5.50;;;12.80;99.90;;;;;;5048964;28;20127;-76
2022/08/09 03:06:34;;;;;;;4.82;4.32;;;12.90;99.90;;;;;;5049464;28;20056;-78
2022/08/09 03:09:01;;;;;;;19.25;4.80;;;12.90;99.90;;;;;;5052112;28;20498;-79
2022/08/09 03:11:29;;;;;;;13.07;4.15;;;13.00;99.90;;;;;;5047116;28;20078;-77
2022/08/09 03:13:55;;;;;;;5.70;4.85;;;13.00;99.90;;;;;;5053474;28;20044;-79
2022/08/09 03:16:22;;;;;;;5.10;4.60;;;13.00;99.90;;;;;;5052453;28;20043;-76
2022/08/09 03:18:48;;;;;;;12.82;4.90;;;13.00;99.90;;;;;;5048878;28;20040;-76
2022/08/09 03:21:15;;;;;;;9.45;4.90;;;13.00;99.90;;;;;;5051412;28;20888;-79
2022/08/09 03:23:45;;;;;;;38.35;5.85;;;13.10;99.90;;;;;;5048850;28;20064;-78
2022/08/09 03:26:15;;;;;;;9.98;5.35;;;13.00;99.90;;;;;;5055432;28;20598;-80
2022/08/09 03:28:43;;;;;;;10.20;6.63;;;13.00;99.90;;;;;;5052078;28;20120;-78
2022/08/09 03:31:09;;;;;;;14.30;8.35;;;12.90;99.90;;;;;;5050348;28;20048;-77
2022/08/09 03:33:36;;;;;;;13.90;7.40;;;12.90;99.90;;;;;;5052068;28;20450;-78
2022/08/09 03:36:02;;;;;;;6.40;5.72;;;12.90;99.90;;;;;;5050461;28;20044;-76
2022/08/09 03:38:29;;;;;;;8.15;6.63;;;12.80;99.90;;;;;;5051780;28;20041;-76
2022/08/09 03:40:55;;;;;;;21.10;8.77;;;12.80;99.90;;;;;;5054087;28;20051;-77
2022/08/09 03:43:20;;;;;;;156.25;9.43;;;12.80;99.90;;;;;;5047012;28;20040;-77
2022/08/09 03:45:46;;;;;;;116.55;9.07;;;12.80;99.90;;;;;;5055906;28;20497;-76
2022/08/09 03:48:12;;;;;;;53.72;7.53;;;12.90;99.90;;;;;;5055759;28;20540;-78
2022/08/09 03:50:39;;;;;;;28.60;6.35;;;12.90;99.90;;;;;;5049733;28;20043;-77
2022/08/09 03:53:08;;;;;;;66.38;7.90;;;12.80;99.90;;;;;;5049187;28;20081;-76
2022/08/09 03:55:34;;;;;;;92.57;9.07;;;12.80;99.90;;;;;;5053979;28;20033;-77
2022/08/09 03:58:00;;;;;;;20.15;7.13;;;12.80;99.90;;;;;;5053165;28;20049;-77
2022/08/09 04:00:26;;;;;;;31.92;7.25;;;12.80;99.90;;;;;;5047448;28;20040;-81
2022/08/09 04:02:54;;;;;;;43.78;6.80;;;12.80;99.90;;;;;;5048386;28;20036;-78
2022/08/09 04:05:20;;;;;;;39.53;7.00;;;12.80;99.90;;;;;;5048295;28;20045;-77
2022/08/09 04:07:46;;;;;;;28.50;6.22;;;12.80;99.90;;;;;;5053926;28;20052;-78
2022/08/09 04:10:13;;;;;;;50.00;7.07;;;12.90;99.90;;;;;;5053122;28;20632;-77
2022/08/09 04:12:45;;;;;;;50.97;5.90;;;12.90;99.90;;;;;;5050754;28;20061;-77
2022/08/09 04:15:12;;;;;;;36.17;6.07;;;12.80;99.90;;;;;;5054253;28;20037;-79
2022/08/09 04:17:39;;;;;;;30.50;4.38;;;12.80;99.90;;;;;;5053089;28;20036;-77
2022/08/09 04:20:06;;;;;;;46.22;4.05;;;12.80;99.90;;;;;;5046989;28;20126;-78
2022/08/09 04:22:32;;;;;;;11.95;3.78;;;12.70;99.90;;;;;;5051481;28;20886;-77
2022/08/09 04:24:58;;;;;;;36.53;3.97;;;12.80;99.90;;;;;;5053004;28;20044;-76
2022/08/09 04:27:24;;;;;;;3.75;2.80;;;12.60;99.90;;;;;;5054330;28;20052;-77
2022/08/09 04:29:50;;;;;;;4.88;3.70;;;12.60;99.90;;;;;;5051139;28;20593;-77
2022/08/09 04:32:15;;;;;;;7.35;4.50;;;12.50;99.90;;;;;;5052152;28;20037;-77
2022/08/09 04:34:41;;;;;;;7.13;3.90;;;12.50;99.90;;;;;;5051744;28;20411;-75
2022/08/09 04:37:07;;;;;;;6.88;3.58;;;12.50;99.90;;;;;;5053788;28;20406;-80
2022/08/09 04:39:32;;;;;;;13.82;3.92;;;12.50;99.90;;;;;;5050537;28;20072;-77
2022/08/09 04:41:58;;;;;;;129.63;7.55;;;12.50;99.90;;;;;;5054873;28;20082;-77
2022/08/09 04:44:24;;;;;;;11.65;4.43;;;12.50;99.90;;;;;;5055068;28;20050;-79
2022/08/09 04:46:49;;;;;;;22.77;4.38;;;12.50;99.90;;;;;;5051839;28;20177;-77
2022/08/09 04:49:16;;;;;;;8.35;3.47;;;12.50;99.90;;;;;;5048721;28;20032;-78
2022/08/09 04:51:41;;;;;;;24.13;3.88;;;12.60;99.90;;;;;;5050595;28;20090;-76
2022/08/09 04:54:07;;;;;;;9.50;3.40;;;12.60;99.90;;;;;;5055223;28;20063;-77
2022/08/09 04:56:32;;;;;;;14.43;2.83;;;12.70;99.90;;;;;;5047907;28;20041;-76
2022/08/09 04:58:58;;;;;;;11.88;3.47;;;12.80;99.90;;;;;;5051688;28;20123;-79
2022/08/09 05:01:24;;;;;;;7.63;3.25;;;12.90;99.90;;;;;;5053624;28;20037;-77
2022/08/09 05:03:49;;;;;;;7.80;2.47;;;13.00;99.90;;;;;;5052159;28;20086;-79
2022/08/09 05:06:15;;;;;;;5.03;3.03;;;13.10;99.90;;;;;;5052631;28;20044;-77
2022/08/09 05:08:41;;;;;;;4.70;3.95;;;13.10;99.90;;;;;;5056643;28;20029;-76
2022/08/09 05:11:06;;;;;;;6.05;4.13;;;13.30;99.90;;;;;;5057282;28;20476;-77
2022/08/09 05:13:32;;;;;;;6.32;4.40;;;13.50;99.90;;;;;;5055875;28;20040;-77
2022/08/09 05:15:58;;;;;;;4.70;4.20;;;13.60;99.90;;;;;;5056415;28;20054;-77
2022/08/09 05:18:28;;;;;;;6.20;3.92;;;13.90;99.90;;;;;;5052811;28;20561;-78
2022/08/09 05:20:57;;;;;;;5.18;4.32;;;14.10;99.90;;;;;;5051906;28;20083;-77
2022/08/09 05:23:23;;;;;;;4.93;2.85;;;14.60;99.90;;;;;;5051622;28;20049;-80
2022/08/09 05:25:49;;;;;;;7.60;2.88;;;16.00;99.90;;;;;;5054975;28;20044;-78
2022/08/09 05:28:15;;;;;;;3.33;2.67;;;17.90;99.90;;;;;;5054453;28;20045;-79
2022/08/09 05:30:40;;;;;;;6.88;2.85;;;19.70;99.90;;;;;;5054767;28;20856;-77
2022/08/09 05:33:06;;;;;;;3.10;2.60;;;21.30;99.90;;;;;;5052882;28;20576;-77
2022/08/09 05:35:32;;;;;;;2.72;2.45;;;22.70;99.90;;;;;;5033336;28;20395;-79
2022/08/09 05:37:57;;;;;;;3.10;2.33;;;23.90;99.90;;;;;;5050625;28;20044;-77
2022/08/09 05:40:25;;;;;;;2.60;2.35;;;24.70;99.90;;;;;;5057927;28;20071;-78
2022/08/09 05:42:51;;;;;;;3.58;2.42;;;25.50;99.90;;;;;;5052596;28;20089;-77
2022/08/09 05:45:16;;;;;;;2.70;2.35;;;26.30;99.90;;;;;;5053144;28;20041;-78
2022/08/09 05:47:42;;;;;;;2.78;2.10;;;26.50;99.90;;;;;;5052135;28;20132;-77
2022/08/09 05:50:08;;;;;;;2.55;1.92;;;26.90;99.90;;;;;;5052445;28;20124;-77
2022/08/09 05:52:34;;;;;;;2.25;2.05;;;27.50;99.90;;;;;;5051265;28;20124;-78
2022/08/09 05:55:00;;;;;;;7.40;3.40;;;27.90;99.90;;;;;;5052556;28;20080;-78
2022/08/09 05:57:25;;;;;;;3.25;1.95;;;28.40;99.90;;;;;;5054621;28;20068;-78
2022/08/09 05:59:51;;;;;;;1.92;1.83;;;29.10;99.90;;;;;;5050755;28;20527;-79
2022/08/09 06:02:17;;;;;;;3.35;2.53;;;29.30;99.90;;;;;;5052030;28;20036;-78
2022/08/09 06:04:42;;;;;;;3.75;2.10;;;29.40;99.90;;;;;;5055231;28;20824;-81
2022/08/09 06:07:08;;;;;;;2.85;2.00;;;30.50;99.90;;;;;;5053009;28;20503;-79
2022/08/09 06:09:34;;;;;;;3.58;1.48;;;31.10;99.40;;;;;;5054922;28;20094;-81
2022/08/09 06:11:59;;;;;;;3.00;1.77;;;31.90;98.40;;;;;;5053545;28;20049;-79
2022/08/09 06:14:25;;;;;;;3.30;1.92;;;32.00;97.60;;;;;;5056798;28;20072;-79
2022/08/09 06:16:51;;;;;;;4.18;1.85;;;32.50;96.30;;;;;;5051873;28;20102;-78
2022/08/09 06:19:17;;;;;;;4.30;1.92;;;32.70;95.60;;;;;;5055620;28;20094;-81
2022/08/09 06:21:43;;;;;;;6.07;2.25;;;32.60;94.50;;;;;;5056632;28;20059;-78
2022/08/09 06:24:09;;;;;;;5.75;3.00;;;31.70;94.40;;;;;;5054255;28;20275;-79
2022/08/09 06:26:37;;;;;;;4.72;2.55;;;30.90;94.70;;;;;;5052222;28;20071;-79
2022/08/09 06:29:03;;;;;;;4.15;3.22;;;29.70;95.50;;;;;;5052187;28;20040;-78
2022/08/09 06:31:29;;;;;;;3.88;2.90;;;29.00;96.30;;;;;;5053509;28;20530;-79
2022/08/09 06:33:54;;;;;;;5.60;3.33;;;28.40;96.90;;;;;;5055750;28;20115;-77
2022/08/09 06:36:20;;;;;;;4.72;2.42;;;27.50;97.30;;;;;;5051770;28;20044;-78
2022/08/09 06:38:45;;;;;;;4.55;2.88;;;27.20;98.10;;;;;;5053894;28;20040;-79
2022/08/09 06:41:11;;;;;;;3.50;2.30;;;26.80;98.30;;;;;;5055334;28;20060;-78
2022/08/09 06:43:37;;;;;;;4.80;2.65;;;26.40;98.70;;;;;;5057068;28;20032;-79
2022/08/09 06:46:02;;;;;;;3.20;2.45;;;26.10;99.00;;;;;;5054246;28;20483;-78
2022/08/09 06:48:28;;;;;;;4.65;2.75;;;25.80;99.50;;;;;;5054211;28;20041;-80
2022/08/09 06:50:54;;;;;;;3.15;2.33;;;25.50;99.80;;;;;;5052594;28;20043;-77
2022/08/09 06:53:19;;;;;;;5.70;3.30;;;25.00;99.90;;;;;;5050929;28;20234;-77
2022/08/09 06:55:45;;;;;;;4.88;2.90;;;24.70;99.90;;;;;;5052838;28;20528;-77
2022/08/09 06:58:10;;;;;;;6.90;2.75;;;24.70;99.90;;;;;;5035861;28;20037;-77
2022/08/09 07:00:36;;;;;;;6.07;2.30;;;24.60;99.90;;;;;;5052605;28;20047;-78
2022/08/09 07:03:02;;;;;;;5.60;2.47;;;24.50;99.90;;;;;;5055902;28;20041;-78
2022/08/09 07:05:28;;;;;;;4.22;2.45;;;24.30;99.90;;;;;;5058306;28;20051;-79
2022/08/09 07:07:54;;;;;;;3.97;1.67;;;24.20;99.90;;;;;;5051467;28;20048;-78
2022/08/09 07:10:21;;;;;;;10.20;1.98;;;24.30;99.90;;;;;;5052230;28;20052;-78
2022/08/09 07:12:47;;;;;;;5.82;1.95;;;24.40;99.90;;;;;;5052759;28;20080;-78
2022/08/09 07:15:12;;;;;;;3.97;1.73;;;24.50;99.90;;;;;;5057442;28;20060;-77
2022/08/09 07:17:38;;;;;;;8.73;1.23;;;24.60;99.90;;;;;;5056120;28;20044;-78
2022/08/09 07:20:04;;;;;;;3.33;1.52;;;24.60;99.90;;;;;;5054577;28;20851;-77
2022/08/09 07:22:29;;;;;;;2.65;1.00;;;24.40;99.90;;;;;;5053529;28;20043;-77
2022/08/09 07:24:55;;;;;;;3.97;0.80;;;24.40;99.90;;;;;;5051199;28;20040;-77
2022/08/09 07:27:20;;;;;;;2.90;0.90;;;24.50;99.90;;;;;;5054707;28;20036;-77
2022/08/09 07:29:46;;;;;;;2.70;1.05;;;24.20;99.90;;;;;;5050026;28;20029;-77
2022/08/09 07:32:12;;;;;;;1.35;0.70;;;24.20;99.90;;;;;;5053359;28;20704;-78
2022/08/09 07:34:37;;;;;;;2.97;0.60;;;24.30;99.90;;;;;;5054077;28;20548;-77
2022/08/09 07:37:03;;;;;;;2.30;0.95;;;24.50;99.90;;;;;;5054087;28;20040;-78
2022/08/09 07:39:28;;;;;;;1.67;0.70;;;24.60;99.90;;;;;;5051466;28;20032;-77
2022/08/09 07:41:54;;;;;;;1.38;0.50;;;24.60;99.90;;;;;;5049161;28;20039;-77
2022/08/09 07:44:20;;;;;;;3.25;0.90;;;24.70;99.90;;;;;;5056495;28;20097;-77
2022/08/09 07:46:46;;;;;;;2.78;0.70;;;24.80;99.90;;;;;;5050798;28;20037;-77
2022/08/09 07:49:12;;;;;;;2.78;0.70;;;24.80;99.90;;;;;;5056054;28;20037;-77
2022/08/09 07:51:38;;;;;;;2.65;0.75;;;24.70;99.90;;;;;;5047469;28;20040;-79
2022/08/09 07:54:04;;;;;;;2.25;0.50;;;24.40;99.90;;;;;;5051550;28;20058;-79
2022/08/09 07:56:29;;;;;;;2.78;0.40;;;24.50;99.90;;;;;;5057506;28;20047;-80
2022/08/09 07:58:55;;;;;;;6.40;0.50;;;24.50;99.90;;;;;;5057677;28;20048;-81
2022/08/09 08:01:21;;;;;;;2.20;0.98;;;24.20;99.90;;;;;;5042309;28;20041;-77
2022/08/09 08:03:46;;;;;;;4.95;0.43;;;24.20;99.90;;;;;;5038085;28;20175;-78
2022/08/09 08:06:12;;;;;;;2.58;0.30;;;23.70;99.90;;;;;;5035337;28;20040;-77
2022/08/09 08:08:38;;;;;;;0.73;0.32;;;23.60;99.90;;;;;;5049632;28;20082;-78
2022/08/09 08:11:03;;;;;;;0.90;0.32;;;23.70;99.90;;;;;;5055070;28;20407;-78
2022/08/09 08:13:29;;;;;;;3.13;0.38;;;23.80;99.90;;;;;;5053068;28;20463;-78
2022/08/09 08:15:55;;;;;;;1.92;0.35;;;24.00;99.90;;;;;;5053641;28;20094;-78
2022/08/09 08:18:20;;;;;;;2.83;0.38;;;24.00;99.90;;;;;;5054516;28;20549;-77
2022/08/09 08:20:46;;;;;;;2.78;0.40;;;24.10;99.90;;;;;;5049048;28;20033;-79
2022/08/09 08:23:12;;;;;;;2.67;0.40;;;24.30;99.90;;;;;;5052038;28;20051;-78
2022/08/09 08:25:37;;;;;;;2.33;0.43;;;24.50;99.90;;;;;;5032250;28;20069;-77
2022/08/09 08:28:04;;;;;;;10.95;1.08;;;24.70;99.90;;;;;;5051332;28;20045;-77
2022/08/09 08:30:29;;;;;;;6.88;0.95;;;25.00;99.80;;;;;;5052447;28;20471;-77
2022/08/09 08:32:55;;;;;;;2.35;0.47;;;25.10;99.50;;;;;;5057726;28;20064;-77
2022/08/09 08:35:21;;;;;;;2.42;0.50;;;25.30;99.30;;;;;;5054918;28;20048;-79
2022/08/09 08:37:47;;;;;;;3.78;0.70;;;25.40;99.60;;;;;;5052052;28;20475;-78
2022/08/09 08:40:13;;;;;;;3.33;0.70;;;25.40;99.40;;;;;;5053831;28;20048;-77
2022/08/09 08:42:40;;;;;;;1.58;0.35;;;25.30;99.20;;;;;;5055407;28;20040;-77
2022/08/09 08:45:07;;;;;;;2.05;0.35;;;25.40;99.30;;;;;;5056498;28;20475;-78
2022/08/09 08:47:32;;;;;;;1.48;0.38;;;25.30;99.10;;;;;;5057714;28;20444;-78
2022/08/09 08:49:59;;;;;;;1.10;0.30;;;25.00;99.10;;;;;;5056436;28;20040;-78
2022/08/09 08:52:28;;;;;;;4.20;0.32;;;24.80;99.50;;;;;;5059673;28;20033;-78
2022/08/09 08:54:55;;;;;;;3.83;0.40;;;24.70;99.10;;;;;;5053798;28;20534;-78
2022/08/09 08:57:22;;;;;;;1.25;0.30;;;24.40;98.90;;;;;;5053337;28;20056;-79
2022/08/09 08:59:49;;;;;;;3.25;0.40;;;24.20;99.80;;;;;;5054153;28;20037;-79
2022/08/09 09:02:25;;;;;;;2.42;0.55;;;24.30;99.80;;;;;;5052440;28;20102;-80
2022/08/09 09:04:59;;;;;;;1.00;0.43;;;24.50;99.90;;;;;;5059697;28;20118;-81
2022/08/09 09:07:26;;;;;;;1.67;0.30;;;24.60;99.90;;;;;;5059674;28;20060;-80
2022/08/09 09:09:54;;;;;;;0.85;0.25;;;25.00;99.80;;;;;;5060183;28;20769;-80
2022/08/09 09:12:28;;;;;;;5.18;0.70;;;25.30;99.50;;;;;;5067922;28;20033;-83
2022/08/09 09:14:57;;;;;;;1.30;0.40;;;25.60;99.20;;;;;;5058783;28;20059;-80
2022/08/09 09:17:24;;;;;;;1.75;0.60;;;25.90;99.10;;;;;;5058475;28;20131;-80
2022/08/09 09:19:51;;;;;;;4.28;0.32;;;25.70;98.80;;;;;;5062165;28;20053;-80
2022/08/09 09:22:20;;;;;;;2.92;0.40;;;25.80;98.90;;;;;;5063174;28;20053;-80
2022/08/09 09:24:54;;;;;;;0.68;0.28;;;25.80;98.70;;;;;;5056303;28;20071;-78
2022/08/09 09:27:25;;;;;;;1.95;0.47;;;25.70;98.30;;;;;;5059546;28;20040;-79
2022/08/09 09:29:52;;;;;;;1.75;0.20;;;25.60;98.10;;;;;;5057339;28;20443;-79
2022/08/09 09:32:20;;;;;;;0.80;0.20;;;25.30;98.10;;;;;;5055506;28;20048;-78
2022/08/09 09:35:00;;;;;;;5.22;0.30;;;25.10;98.10;;;;;;5050155;28;20048;-78
2022/08/09 09:37:28;;;;;;;1.55;0.40;;;25.00;97.80;;;;;;5055904;28;20118;-78
2022/08/09 09:39:54;;;;;;;0.57;0.30;;;24.70;98.40;;;;;;5054422;28;20079;-78
2022/08/09 09:42:24;;;;;;;2.08;0.45;;;24.40;98.40;;;;;;5057017;28;20076;-78
2022/08/09 09:44:58;;;;;;;2.42;0.40;;;24.00;99.00;;;;;;5057359;28;21478;-78
2022/08/09 09:47:24;;;;;;;5.60;0.50;;;23.80;99.80;;;;;;5062316;28;20041;-79
2022/08/09 09:49:51;;;;;;;2.75;0.50;;;24.00;99.90;;;;;;5058404;28;20075;-79
2022/08/09 09:52:17;;;;;;;5.93;0.60;;;24.10;99.90;;;;;;5057614;28;20064;-77
2022/08/09 09:54:45;;;;;;;1.13;0.20;;;24.20;99.90;;;;;;5055798;28;20067;-80
2022/08/09 09:57:18;;;;;;;3.10;0.40;;;24.30;99.90;;;;;;5058675;28;20040;-79
2022/08/09 09:59:45;;;;;;;1.77;0.30;;;24.50;99.90;;;;;;5060658;28;20037;-81
2022/08/09 10:02:11;;;;;;;1.00;0.40;;;24.80;99.50;;;;;;5060946;28;20051;-79
2022/08/09 10:04:37;;;;;;;2.20;0.30;;;25.00;99.20;;;;;;5055033;28;20033;-80
2022/08/09 10:07:03;;;;;;;4.03;0.30;;;25.00;99.50;;;;;;5056668;28;20130;-81
2022/08/09 10:09:49;;;;;;;1.10;0.30;;;25.00;98.90;;;;;;5053020;28;20395;-79
2022/08/09 10:12:22;;;;;;;;;;;24.90;99.20;;;;;;5058338;28;20036;-79
2022/08/09 10:14:48;;;;;;;2.45;0.40;;;24.90;99.20;;;;;;5055736;28;19922;-80
2022/08/09 10:17:14;;;;;;;1.58;0.30;;;25.20;98.80;;;;;;5054444;28;20032;-78
2022/08/09 10:19:39;;;;;;;2.47;0.52;;;25.30;98.70;;;;;;5055698;28;20514;-82
2022/08/09 10:22:05;;;;;;;0.73;0.30;;;25.30;98.30;;;;;;5058183;28;20123;-81
2022/08/09 10:24:31;;;;;;;5.13;0.40;;;25.30;98.40;;;;;;5049588;28;20048;-79
2022/08/09 10:26:58;;;;;;;2.35;0.20;;;25.40;98.10;;;;;;5053409;28;20103;-81
2022/08/09 10:29:24;;;;;;;0.50;0.20;;;25.50;98.40;;;;;;5060040;28;20876;-80
2022/08/09 10:31:51;;;;;;;0.57;0.20;;;25.50;97.90;;;;;;5053230;28;20641;-79
2022/08/09 10:34:17;;;;;;;2.40;0.30;;;25.60;97.80;;;;;;5053898;28;20044;-79
2022/08/09 10:36:43;;;;;;;0.63;0.30;;;25.60;97.50;;;;;;5060378;28;20043;-81
2022/08/09 10:39:09;;;;;;;0.40;0.20;;;25.60;97.30;;;;;;5054852;28;20044;-79
2022/08/09 10:41:35;;;;;;;0.20;0.10;;;25.50;97.60;;;;;;5047877;28;20103;-78
2022/08/09 10:44:02;;;;;;;0.30;0.20;;;25.40;97.20;;;;;;5050275;28;20053;-79
2022/08/09 10:46:43;;;;;;;1.25;0.35;;;25.50;97.70;;;;;;5061771;28;20041;-79
2022/08/09 10:49:22;;;;;;;2.08;0.50;;;25.50;97.10;;;;;;5051467;28;20068;-79
2022/08/09 10:52:07;;;;;;;1.65;0.30;;;25.30;98.20;;;;;;5053489;28;20041;-80
2022/08/09 10:54:33;;;;;;;1.15;0.30;;;25.20;97.80;;;;;;5054985;28;20431;-79
2022/08/09 10:57:07;;;;;;;0.45;0.30;;;25.20;98.10;;;;;;5059299;28;20212;-78
2022/08/09 10:59:34;;;;;;;2.22;0.20;;;25.20;98.00;;;;;;5058321;28;20048;-84
2022/08/09 11:02:00;;;;;;;3.15;0.60;;;25.20;98.00;;;;;;5054106;28;20522;-80
2022/08/09 11:04:29;;;;;;;3.05;0.40;;;25.20;98.10;;;;;;5052186;28;20051;-78
2022/08/09 11:06:58;;;;;;;0.88;0.30;;;25.30;98.20;;;;;;5056212;28;20048;-84
2022/08/09 11:09:41;;;;;;;1.92;0.20;;;25.30;97.90;;;;;;5058507;28;20123;-80
2022/08/09 11:12:11;;;;;;;2.20;0.20;;;25.10;98.70;;;;;;5053928;28;20087;-78
2022/08/09 11:14:41;;;;;;;0.63;0.20;;;25.20;98.60;;;;;;5058523;28;20040;-79
2022/08/09 11:17:13;;;;;;;0.82;0.30;;;25.20;98.10;;;;;;5054601;28;20094;-79
2022/08/09 11:19:52;;;;;;;0.65;0.20;;;25.20;97.80;;;;;;5057346;28;20079;-81
2022/08/09 11:22:18;;;;;;;0.32;0.30;;;25.10;98.30;;;;;;5054348;28;21366;-79
2022/08/09 11:25:09;;;;;;;1.10;0.25;;;25.00;98.00;;;;;;5052060;28;20369;-78
2022/08/09 11:27:38;;;;;;;0.70;0.30;;;25.10;98.50;;;;;;5051147;28;20047;-78
2022/08/09 11:30:05;;;;;;;0.88;0.30;;;25.20;98.50;;;;;;5044994;28;20616;-80
2022/08/09 11:32:45;;;;;;;0.50;0.30;;;25.30;97.80;;;;;;5044430;28;20127;-78
2022/08/09 11:35:26;;;;;;;0.98;0.20;;;25.70;98.00;;;;;;5048918;28;20036;-79
2022/08/09 11:37:54;;;;;;;0.95;0.20;;;25.70;97.70;;;;;;5052007;28;20447;-78
2022/08/09 11:40:23;;;;;;;0.55;0.30;;;25.90;97.70;;;;;;5052240;28;20048;-79
2022/08/09 11:42:51;;;;;;;1.73;0.40;;;25.90;97.20;;;;;;5055592;28;20041;-78
2022/08/09 11:45:27;;;;;;;3.30;0.20;;;25.60;97.70;;;;;;5055853;28;20119;-79
2022/08/09 11:48:02;;;;;;;0.60;0.20;;;25.40;97.70;;;;;;5054097;28;20154;-78
2022/08/09 11:50:28;;;;;;;1.88;0.30;;;25.20;97.90;;;;;;5047793;28;20435;-79
2022/08/09 11:53:00;;;;;;;0.40;0.20;;;25.20;98.60;;;;;;5046101;28;20051;-82
2022/08/09 11:55:34;;;;;;;3.50;0.52;;;25.20;98.30;;;;;;5053852;28;20051;-79
2022/08/09 11:58:01;;;;;;;0.40;0.20;;;25.30;98.30;;;;;;5048523;28;20075;-79
2022/08/09 12:00:29;;;;;;;2.78;0.32;;;25.30;98.40;;;;;;5044134;28;20048;-78
2022/08/09 12:02:57;;;;;;;1.33;0.28;;;25.20;98.70;;;;;;5047055;28;20040;-82
2022/08/09 12:05:33;;;;;;;0.85;0.40;;;25.30;99.10;;;;;;5044904;28;20052;-82
2022/08/09 12:08:00;;;;;;;2.08;0.38;;;25.50;99.10;;;;;;5047384;28;20094;-78
2022/08/09 12:10:25;;;;;;;3.15;0.40;;;25.70;98.70;;;;;;5050313;28;20563;-78
2022/08/09 12:12:51;;;;;;;0.55;0.55;;;25.80;98.00;;;;;;5054361;28;20151;-80
2022/08/09 12:15:23;;;;;;;0.45;0.22;;;25.90;97.50;;;;;;5043251;28;20123;-79
2022/08/09 12:17:50;;;;;;;0.55;0.30;;;25.90;97.10;;;;;;5062265;28;20452;-81
2022/08/09 12:20:21;;;;;;;1.15;0.25;;;25.80;97.60;;;;;;5059400;28;20052;-79
2022/08/09 12:22:48;;;;;;;1.00;0.20;;;25.60;97.60;;;;;;5058020;28;20045;-79
2022/08/09 12:25:16;;;;;;;3.42;0.30;;;25.70;98.20;;;;;;5040156;28;20091;-78
2022/08/09 12:27:42;;;;;;;1.60;0.90;;;26.00;98.00;;;;;;5060049;28;20079;-79
2022/08/09 12:30:09;;;;;;;4.22;0.60;;;25.50;97.50;;;;;;5056875;28;20040;-78
2022/08/09 12:32:35;;;;;;;1.38;0.30;;;25.50;98.10;;;;;;5051017;28;20032;-82
2022/08/09 12:35:03;;;;;;;1.33;0.20;;;25.60;98.00;;;;;;5048892;28;20099;-79
2022/08/09 12:37:39;;;;;;;1.92;0.40;;;25.60;98.20;;;;;;5054564;28;20039;-78
2022/08/09 12:40:10;;;;;;;2.60;0.57;;;25.70;98.00;;;;;;5057556;28;20123;-78
2022/08/09 12:42:41;;;;;;;3.08;0.50;;;25.60;98.50;;;;;;5052299;28;20064;-78
2022/08/09 12:45:08;;;;;;;2.75;0.30;;;25.60;98.60;;;;;;5057745;28;20111;-78
2022/08/09 12:47:34;;;;;;;0.73;0.30;;;25.60;98.10;;;;;;5051186;28;20127;-82
2022/08/09 12:50:18;;;;;;;0.52;0.40;;;25.60;98.00;;;;;;5048851;28;20615;-78
2022/08/09 12:52:47;;;;;;;1.20;0.20;;;25.60;98.50;;;;;;5055562;28;20090;-78